Medford, MA

3:57 AM EST on December 29, 2014 (GMT -0500)
Lawrence Estates | Change Station
CLOSE
Current Station
Personal Weather Station
Location: Medford, MA
Elevation: 53 ft
Nearby Weather Stations

Elev 53 ft 42.42 °N, 71.12 °W | Updated 3 seconds ago

Partly Cloudy
Partly Cloudy
33.4 °F
Feels Like 33 °F
N
0.0
Wind Variable Wind from NW
Gusts 0.0 mph

Today
High -- | Low -- °F
--% Chance of Precip.
Yesterday
High -- | Low -- °F
Precip. -- in
7:13 AM 4:19 PM
First Quarter, 57% visible
Pressure 30.06 in
Visibility 10.0 miles
Clouds Few 4200 ft
Scattered Clouds 20000 ft
Windchill 33 °F
Dew Point 26 °F
Humidity 73%
Rainfall 0.00 in
Snow Depth Not available.
UV 0 out of 12
Pollen .10 out of 12
Air Quality Not available.
Flu Activity Not available.
METAR KBOS 290754Z 28008KT 10SM FEW042 SCT200 03/M04 A3006 RMK AO2 SLP177 T00281039

More Conditions Fewer Conditions

Pressure 30.06 in
Visibility 10.0 miles
Clouds Few 4200 ft
Scattered Clouds 20000 ft
Windchill 33 °F
Dew Point 26 °F
Humidity 73%
Rainfall 0.00 in
Snow Depth Not available.
UV 0 out of 12
Pollen .10 out of 12
Air Quality Not available.
Flu Activity Not available.
METAR KBOS 290754Z 28008KT 10SM FEW042 SCT200 03/M04 A3006 RMK AO2 SLP177 T00281039

More Conditions Fewer Conditions

10-Day Weather Forecast

Almanac

Astronomy

Dec. 29, 2014 Rise Set
Actual Time
Civil Twilight
Nautical Twilight
Astronomical Twilight
Moon
Length of Visible Light
Length of Day
Tomorrow will be .
, % of the Moon is Illuminated

Today's Extremes

State Highs State Lows

Community

WunderPhotos

Upload Photos

1,781,558 photos uploaded!

WunderBlogs® & News

Nearby

Air Quality

  Air Quality AQ Index Pollutant
Not available.

Snow Depth

Station Depth Elevation

Earthquake Activity

City Distance Mag. Time & Date
Minimum magnitude displayed is 2.5.

Coastal Water Temperatures

Place Temperature

Nearby Weather Stations